Time;durP1;ratioP1;P1;durP2;ratioP2;P2;SDS_P1;SDS_P2;PMS_P1;PMS_P2;Temp;Humidity;BMP_temperature;BMP_pressure;BME280_temperature;BME280_humidity;BME280_pressure;Samples;Min_cycle;Max_cycle;Signal;HPM_P1;HPM_P2
2023/08/18 00:00:43;;;;;;;0.80;0.80;;;;;;;21.39;77.75;97035.03;5038832;28;20534;-62
2023/08/18 00:03:09;;;;;;;0.80;0.80;;;;;;;21.35;78.29;97029.50;5038808;28;20072;-62
2023/08/18 00:05:36;;;;;;;0.80;0.80;;;;;;;21.06;78.18;96977.91;5023214;28;20137;-61
2023/08/18 00:08:03;;;;;;;0.80;0.80;;;;;;;21.03;78.01;96984.44;5019934;28;20497;-61
2023/08/18 00:10:29;;;;;;;0.90;0.90;;;;;;;21.26;77.94;97020.84;5020033;28;20228;-61
2023/08/18 00:12:56;;;;;;;0.90;0.90;;;;;;;21.30;77.93;97032.84;5020574;28;20512;-62
2023/08/18 00:15:23;;;;;;;0.80;0.80;;;;;;;21.18;78.32;97030.75;5022878;28;20095;-61
2023/08/18 00:17:49;;;;;;;0.93;0.93;;;;;;;20.88;78.69;97005.69;5030154;28;20419;-61
2023/08/18 00:20:16;;;;;;;1.00;1.00;;;;;;;20.61;79.02;96962.91;5043923;28;20056;-63
2023/08/18 00:22:43;;;;;;;0.90;0.90;;;;;;;20.86;78.75;97005.34;5043864;28;20429;-61
2023/08/18 00:25:10;;;;;;;0.90;0.90;;;;;;;20.92;79.53;97023.28;5043743;28;20057;-61
2023/08/18 00:27:37;;;;;;;0.90;0.90;;;;;;;20.94;79.28;97023.66;5043533;28;20057;-61
2023/08/18 00:30:05;;;;;;;0.90;0.90;;;;;;;20.85;79.44;97027.06;5042081;28;20076;-61
2023/08/18 00:32:32;;;;;;;0.80;0.80;;;;;;;20.83;80.02;97025.94;5042060;28;20056;-61
2023/08/18 00:34:58;;;;;;;0.90;0.90;;;;;;;20.86;80.02;97025.06;5043532;28;20076;-61
2023/08/18 00:37:25;;;;;;;0.88;0.88;;;;;;;20.79;79.94;97022.38;5043403;28;20051;-61
2023/08/18 00:39:52;;;;;;;0.90;0.90;;;;;;;20.75;79.98;97024.50;5043350;28;20621;-62
2023/08/18 00:42:19;;;;;;;0.80;0.80;;;;;;;20.62;80.37;97009.53;5043038;28;20056;-61
2023/08/18 00:44:45;;;;;;;0.90;0.90;;;;;;;20.62;80.00;97003.88;5043366;28;20135;-63
2023/08/18 00:47:13;;;;;;;0.90;0.90;;;;;;;20.72;79.78;97019.75;5043382;28;20044;-63
2023/08/18 00:49:40;;;;;;;0.80;0.80;;;;;;;20.28;79.78;96961.25;5041775;28;20521;-62
2023/08/18 00:52:07;;;;;;;0.85;0.85;;;;;;;20.57;80.84;97019.28;5041392;28;20462;-61
2023/08/18 00:54:34;;;;;;;0.90;0.90;;;;;;;20.57;80.31;97015.66;5043215;28;20060;-60
2023/08/18 00:57:00;;;;;;;0.90;0.90;;;;;;;20.45;80.23;97000.25;5043090;28;20049;-61
2023/08/18 00:59:27;;;;;;;0.90;0.90;;;;;;;20.51;80.61;97018.22;5042866;28;20057;-62
2023/08/18 01:01:54;;;;;;;0.80;0.80;;;;;;;20.16;81.19;96984.41;5043763;28;20196;-60
2023/08/18 01:04:21;;;;;;;0.80;0.80;;;;;;;20.41;81.00;97024.06;5043234;28;20048;-61
2023/08/18 01:06:48;;;;;;;0.90;0.90;;;;;;;20.43;80.76;97013.16;5043771;28;20140;-61
2023/08/18 01:09:14;;;;;;;0.70;0.70;;;;;;;20.14;80.64;96978.47;5042650;28;20053;-61
2023/08/18 01:12:10;;;;;;;0.90;0.90;;;;;;;20.29;81.11;97008.66;5042953;28;20170;-61
2023/08/18 01:14:58;;;;;;;0.80;0.80;;;;;;;20.19;81.88;97003.25;5043607;28;20053;-61
2023/08/18 01:17:37;;;;;;;0.90;0.90;;;;;;;20.06;82.43;97005.13;5043218;28;20448;-61
2023/08/18 01:20:05;;;;;;;0.90;0.90;;;;;;;20.14;81.98;96998.16;5043628;28;20588;-63
2023/08/18 01:22:34;;;;;;;0.90;0.90;;;;;;;20.18;81.99;97012.91;5043822;28;20067;-61
2023/08/18 01:25:01;;;;;;;0.80;0.80;;;;;;;20.08;81.79;96985.75;5043720;28;20049;-60
2023/08/18 01:27:30;;;;;;;0.85;0.85;;;;;;;20.20;81.65;97004.84;5043375;28;20430;-60
2023/08/18 01:29:58;;;;;;;0.80;0.80;;;;;;;20.11;81.95;97024.28;5043439;28;20048;-61
2023/08/18 01:32:29;;;;;;;0.90;0.90;;;;;;;20.09;81.49;96984.56;5043556;28;20059;-61
2023/08/18 01:35:00;;;;;;;0.90;0.90;;;;;;;20.21;81.36;97009.22;5039404;28;20076;-61
2023/08/18 01:37:29;;;;;;;0.90;0.90;;;;;;;20.21;80.96;97000.78;5020991;28;20061;-60
2023/08/18 01:39:58;;;;;;;0.82;0.82;;;;;;;20.19;81.19;96997.63;5037614;28;20319;-60
2023/08/18 01:42:26;;;;;;;0.80;0.80;;;;;;;19.89;80.76;96945.19;5022478;28;20057;-61
2023/08/18 01:44:59;;;;;;;0.90;0.90;;;;;;;20.20;81.14;97004.84;5022155;28;20640;-61
2023/08/18 01:47:26;;;;;;;;;;;;;;;20.17;80.97;97006.47;5021801;28;20053;-61
2023/08/18 01:49:53;;;;;;;0.90;0.90;;;;;;;20.04;81.64;97001.94;5021669;28;20285;-61
2023/08/18 01:52:20;;;;;;;0.90;0.90;;;;;;;20.11;81.43;97004.59;5021687;28;20068;-61
2023/08/18 01:54:47;;;;;;;0.90;0.90;;;;;;;20.13;80.88;96993.69;5021687;28;20049;-60
2023/08/18 01:57:14;;;;;;;0.80;0.80;;;;;;;20.22;80.58;97008.00;5021810;28;20068;-60
2023/08/18 01:59:41;;;;;;;0.88;0.88;;;;;;;20.22;80.46;97008.00;5021669;28;20123;-63
2023/08/18 02:02:07;;;;;;;0.80;0.80;;;;;;;20.18;80.60;97013.72;5021492;28;20060;-62
2023/08/18 02:04:34;;;;;;;0.80;0.80;;;;;;;20.13;80.75;97007.75;5021134;28;20052;-60
2023/08/18 02:07:01;;;;;;;0.80;0.80;;;;;;;20.06;81.45;97007.94;5020841;28;20049;-62
2023/08/18 02:09:27;;;;;;;0.90;0.90;;;;;;;19.81;82.04;96982.31;4980203;28;20533;-60
2023/08/18 02:11:54;;;;;;;0.90;0.90;;;;;;;20.02;81.80;97012.81;4981823;28;20054;-62
2023/08/18 02:14:20;;;;;;;0.85;0.85;;;;;;;20.05;81.64;97009.94;4982540;28;20050;-61
2023/08/18 02:16:48;;;;;;;0.80;0.80;;;;;;;20.01;81.47;97003.56;4981768;28;20054;-61
2023/08/18 02:19:14;;;;;;;0.70;0.70;;;;;;;19.53;82.21;96945.13;4998485;28;20369;-60
2023/08/18 02:21:41;;;;;;;0.80;0.80;;;;;;;19.86;82.17;97001.50;4999866;28;20672;-60
2023/08/18 02:24:09;;;;;;;0.80;0.80;;;;;;;19.87;82.11;97008.72;5001247;28;20061;-61
2023/08/18 02:26:36;;;;;;;0.80;0.80;;;;;;;19.65;81.99;96973.81;4999890;28;20046;-61
2023/08/18 02:29:03;;;;;;;0.80;0.80;;;;;;;19.83;82.07;96997.53;5001629;28;20072;-61
2023/08/18 02:31:29;;;;;;;0.80;0.80;;;;;;;19.78;82.57;96991.59;5001000;28;20074;-60
2023/08/18 02:33:56;;;;;;;0.90;0.90;;;;;;;19.75;82.78;96996.09;5001748;28;20097;-61
2023/08/18 02:36:22;;;;;;;0.80;0.80;;;;;;;19.87;82.28;97009.50;5000891;28;20097;-61
2023/08/18 02:38:49;;;;;;;0.80;0.80;;;;;;;19.89;82.09;97004.25;5000850;28;20049;-60
2023/08/18 02:41:19;;;;;;;0.90;0.90;;;;;;;19.88;82.24;97001.84;5000706;28;20508;-61
2023/08/18 02:43:47;;;;;;;0.90;0.90;;;;;;;19.87;81.69;96998.25;5000688;28;20060;-61
2023/08/18 02:46:14;;;;;;;0.80;0.80;;;;;;;19.54;81.52;96952.31;4999319;28;20069;-60
2023/08/18 02:48:41;;;;;;;0.80;0.80;;;;;;;19.88;81.91;97013.91;5000743;28;20163;-61
2023/08/18 02:51:08;;;;;;;0.80;0.80;;;;;;;19.97;81.61;97016.94;4999321;28;20050;-60
2023/08/18 02:53:37;;;;;;;0.80;0.80;;;;;;;19.91;81.18;97013.03;5001114;28;20447;-62
2023/08/18 02:56:04;;;;;;;0.90;0.90;;;;;;;19.45;80.63;96932.44;5001187;28;20080;-61
2023/08/18 02:58:33;;;;;;;0.90;0.90;;;;;;;19.44;80.57;96922.41;5000846;28;20368;-61
2023/08/18 03:01:05;;;;;;;0.82;0.82;;;;;;;19.95;80.83;97007.34;5000799;28;20914;-60
2023/08/18 03:03:32;;;;;;;0.80;0.80;;;;;;;19.89;81.37;97028.75;4999807;28;20046;-61
2023/08/18 03:06:04;;;;;;;1.00;1.00;;;;;;;19.94;81.78;97011.38;5001330;28;20056;-61
2023/08/18 03:08:30;;;;;;;0.80;0.80;;;;;;;19.72;81.30;96980.09;5025256;28;20589;-61
2023/08/18 03:10:59;;;;;;;0.82;0.82;;;;;;;19.96;80.80;97011.75;5040903;28;20175;-60
2023/08/18 03:13:26;;;;;;;0.90;0.90;;;;;;;19.40;81.24;96935.75;5040885;28;20432;-60
2023/08/18 03:15:54;;;;;;;0.90;0.90;;;;;;;19.84;81.57;97015.22;5040716;28;20599;-61
2023/08/18 03:18:21;;;;;;;0.90;0.90;;;;;;;19.57;81.77;96978.00;5041087;28;20060;-62
2023/08/18 03:20:48;;;;;;;0.80;0.80;;;;;;;19.84;82.10;97026.44;5039484;28;20049;-62
2023/08/18 03:23:18;;;;;;;0.80;0.80;;;;;;;19.77;81.90;97015.34;5040293;28;20045;-61
2023/08/18 03:25:45;;;;;;;0.80;0.80;;;;;;;19.72;81.62;97024.25;5032488;28;20135;-61
2023/08/18 03:28:11;;;;;;;0.80;0.80;;;;;;;19.35;81.69;96966.34;5042108;28;20614;-61
2023/08/18 03:30:39;;;;;;;0.90;0.90;;;;;;;19.71;82.18;97022.69;5041333;28;20057;-61
2023/08/18 03:33:06;;;;;;;0.90;0.90;;;;;;;19.70;81.74;97009.84;5040045;28;20559;-60
2023/08/18 03:35:35;;;;;;;0.70;0.70;;;;;;;19.81;81.67;97027.28;5040949;28;20053;-61
2023/08/18 03:38:03;;;;;;;0.93;0.93;;;;;;;19.76;81.55;97025.00;5039682;28;20049;-60
2023/08/18 03:40:31;;;;;;;0.80;0.80;;;;;;;19.47;81.77;96980.56;5040986;28;20044;-61
2023/08/18 03:42:57;;;;;;;0.80;0.80;;;;;;;19.78;81.54;97028.16;5041378;28;20717;-61
2023/08/18 03:45:24;;;;;;;0.80;0.80;;;;;;;19.71;81.94;97028.31;5041560;28;20579;-61
2023/08/18 03:47:51;;;;;;;0.80;0.80;;;;;;;19.73;81.95;97021.00;5040145;28;20144;-62
2023/08/18 03:50:21;;;;;;;0.80;0.80;;;;;;;19.53;83.13;97023.00;5042674;28;20056;-60
2023/08/18 03:52:48;;;;;;;0.80;0.80;;;;;;;19.36;82.77;96996.81;5042755;28;20053;-61
2023/08/18 03:55:15;;;;;;;0.80;0.80;;;;;;;19.53;81.84;97001.34;5042962;28;20052;-61
2023/08/18 03:57:42;;;;;;;0.90;0.90;;;;;;;19.66;81.84;97023.19;5042755;28;20432;-62
2023/08/18 04:00:10;;;;;;;0.88;0.88;;;;;;;19.65;82.41;97032.84;5042361;28;20084;-62
2023/08/18 04:02:36;;;;;;;0.90;0.90;;;;;;;19.71;81.92;97028.31;5042023;28;20049;-61
2023/08/18 04:05:03;;;;;;;0.80;0.80;;;;;;;19.73;81.68;97020.25;5043411;28;20091;-61
2023/08/18 04:07:30;;;;;;;0.90;0.90;;;;;;;19.70;81.44;97015.47;5043842;28;20088;-62
2023/08/18 04:09:57;;;;;;;0.90;0.90;;;;;;;19.62;81.15;96988.75;5042460;28;20053;-62
2023/08/18 04:12:24;;;;;;;0.80;0.80;;;;;;;19.89;81.08;97023.13;5044124;28;20053;-62
2023/08/18 04:14:51;;;;;;;0.80;0.80;;;;;;;19.81;81.46;97027.28;5044685;28;20056;-62
2023/08/18 04:17:18;;;;;;;0.80;0.80;;;;;;;19.00;81.15;96902.41;5044292;28;20060;-64
2023/08/18 04:19:44;;;;;;;0.80;0.80;;;;;;;19.64;82.53;97034.03;5024803;28;20053;-62
2023/08/18 04:22:11;;;;;;;0.80;0.80;;;;;;;19.76;81.83;97025.78;5024612;28;20068;-62
2023/08/18 04:24:38;;;;;;;0.90;0.90;;;;;;;19.89;81.00;97040.78;5023519;28;20263;-61
2023/08/18 04:27:04;;;;;;;0.80;0.80;;;;;;;20.05;80.43;97031.63;5024615;28;20208;-61
2023/08/18 04:29:31;;;;;;;0.80;0.80;;;;;;;20.14;79.95;97029.09;5024866;28;20046;-62
2023/08/18 04:31:58;;;;;;;0.80;0.80;;;;;;;20.25;79.34;97032.47;5024734;28;20064;-62
2023/08/18 04:34:25;;;;;;;0.90;0.90;;;;;;;20.11;79.04;96985.69;5024708;28;20132;-62
2023/08/18 04:36:51;;;;;;;0.80;0.80;;;;;;;20.46;79.02;97024.34;5024675;28;20168;-62
2023/08/18 04:39:18;;;;;;;0.90;0.90;;;;;;;20.62;77.94;97032.03;5040815;28;20053;-63
2023/08/18 04:41:45;;;;;;;0.80;0.80;;;;;;;20.54;76.98;96985.56;5043633;28;20438;-61
2023/08/18 04:44:11;;;;;;;0.80;0.80;;;;;;;20.92;76.68;97028.94;5043919;28;20060;-62
2023/08/18 04:46:38;;;;;;;0.90;0.90;;;;;;;21.07;76.21;97029.41;5043718;28;20500;-63
2023/08/18 04:49:05;;;;;;;0.88;0.88;;;;;;;21.21;75.85;97029.88;5044205;28;20063;-61
2023/08/18 04:51:32;;;;;;;0.90;0.90;;;;;;;21.31;75.49;97028.78;5044255;28;20061;-63
2023/08/18 04:53:58;;;;;;;0.90;0.90;;;;;;;21.44;74.82;97038.13;5044133;28;20048;-62
2023/08/18 04:56:25;;;;;;;0.90;0.90;;;;;;;21.64;73.92;97038.78;5043281;28;20071;-63
2023/08/18 04:58:51;;;;;;;0.90;0.90;;;;;;;21.64;73.73;97029.56;5042532;28;20059;-63
2023/08/18 05:01:18;;;;;;;0.90;0.90;;;;;;;21.61;73.32;97036.84;5042314;28;20056;-61
2023/08/18 05:03:45;;;;;;;0.90;0.90;;;;;;;21.83;73.12;97029.44;5043128;28;20045;-62
2023/08/18 05:06:13;;;;;;;0.93;0.93;;;;;;;22.00;71.96;97025.31;5042533;28;20107;-62
2023/08/18 05:08:40;;;;;;;0.90;0.90;;;;;;;22.18;71.23;97019.97;5041397;28;20103;-62
2023/08/18 05:11:11;;;;;;;0.80;0.80;;;;;;;22.43;70.62;97020.03;5042434;28;20486;-62
2023/08/18 05:13:41;;;;;;;0.90;0.90;;;;;;;22.56;69.90;97016.50;5043874;28;20053;-61
2023/08/18 05:16:07;;;;;;;0.90;0.90;;;;;;;22.66;69.48;97004.06;5041785;28;20328;-60
2023/08/18 05:18:35;;;;;;;1.00;1.00;;;;;;;22.84;68.56;97015.59;5034087;28;20045;-60
2023/08/18 05:21:02;;;;;;;1.00;1.00;;;;;;;22.93;67.82;97008.03;5023676;28;20049;-61
2023/08/18 05:23:30;;;;;;;1.00;1.00;;;;;;;23.26;67.64;97025.56;5023156;28;20059;-61
2023/08/18 05:25:59;;;;;;;0.93;0.93;;;;;;;23.21;67.85;97029.72;5023574;28;20046;-61
2023/08/18 05:28:29;;;;;;;1.20;1.20;;;;;;;23.51;67.05;97014.19;5023606;28;20286;-62
2023/08/18 05:30:56;;;;;;;0.95;0.95;;;;;;;23.49;67.33;97005.41;5022344;28;20046;-61
2023/08/18 05:33:23;;;;;;;1.00;1.00;;;;;;;23.75;66.67;97018.22;5023482;28;20049;-61
2023/08/18 05:35:50;;;;;;;1.00;1.00;;;;;;;23.92;66.26;97016.78;5023988;28;20096;-62
2023/08/18 05:38:17;;;;;;;1.20;1.20;;;;;;;23.74;66.69;96985.50;5023736;28;20049;-61
2023/08/18 05:40:46;;;;;;;1.10;1.10;;;;;;;24.11;65.30;97006.41;5023285;28;20429;-63
2023/08/18 05:43:14;;;;;;;1.20;1.20;;;;;;;24.31;65.35;97021.06;5021365;28;20515;-61
2023/08/18 05:45:42;;;;;;;1.10;1.10;;;;;;;24.13;65.12;96984.09;5026274;28;20056;-62
2023/08/18 05:48:09;;;;;;;1.10;1.10;;;;;;;24.47;64.93;97018.78;5042616;28;20468;-61
2023/08/18 05:50:35;;;;;;;0.98;0.98;;;;;;;24.31;63.73;96948.19;5036983;28;20053;-61
2023/08/18 05:53:03;;;;;;;1.13;1.13;;;;;;;24.58;63.03;96962.50;5036556;28;20381;-63
2023/08/18 05:55:31;;;;;;;1.23;1.23;;;;;;;25.05;62.66;97008.41;5040206;28;20128;-60
2023/08/18 05:58:00;;;;;;;1.20;1.20;;;;;;;25.07;62.34;97005.13;5021303;28;20139;-60
2023/08/18 06:00:28;;;;;;;1.40;1.40;;;;;;;25.33;60.88;97012.13;5020921;28;20050;-60
2023/08/18 06:02:55;;;;;;;1.20;1.20;;;;;;;25.45;60.05;97007.63;5030982;28;20476;-63
2023/08/18 06:05:23;;;;;;;1.45;1.45;;;;;;;25.33;59.21;96949.75;5039737;28;20045;-63
2023/08/18 06:07:53;;;;;;;1.30;1.30;;;;;;;25.59;58.81;96990.00;5032196;28;20503;-65
2023/08/18 06:10:20;;;;;;;1.30;1.30;;;;;;;25.55;58.62;96949.63;5020671;28;20064;-64
2023/08/18 06:12:47;;;;;;;1.48;1.48;;;;;;;26.16;58.75;97001.22;5020044;28;20077;-60
2023/08/18 06:15:16;;;;;;;1.40;1.40;;;;;;;24.95;58.06;96785.72;5039328;28;20045;-63
2023/08/18 06:17:43;;;;;;;1.48;1.48;;;;;;;26.46;57.71;96969.00;5035507;28;20475;-59
2023/08/18 06:20:10;;;;;;;1.48;1.48;;;;;;;26.93;56.94;97002.53;5031409;28;20124;-62
2023/08/18 06:22:37;;;;;;;1.60;1.60;;;;;;;26.75;55.57;96953.50;5020797;28;20455;-61
2023/08/18 06:25:06;;;;;;;1.52;1.52;;;;;;;27.28;55.10;97000.03;5033308;28;20049;-67
2023/08/18 06:27:33;;;;;;;1.50;1.50;;;;;;;26.93;54.27;96900.16;5032869;28;20063;-68
2023/08/18 06:30:00;;;;;;;1.65;1.65;;;;;;;27.62;54.22;96997.47;5019836;28;20057;-69
2023/08/18 06:32:27;;;;;;;1.55;1.55;;;;;;;27.86;51.84;96995.41;5029159;28;20084;-62
2023/08/18 06:34:54;;;;;;;1.73;1.73;;;;;;;27.95;51.29;97001.03;5020251;28;20041;-62
2023/08/18 06:37:21;;;;;;;1.60;1.60;;;;;;;28.07;51.54;96999.22;5025948;28;20053;-60
2023/08/18 06:39:47;;;;;;;1.80;1.80;;;;;;;28.23;51.58;97007.31;5036015;28;20052;-61
2023/08/18 06:42:14;;;;;;;1.40;1.40;;;;;;;28.24;51.37;96999.53;5020516;28;20132;-65
2023/08/18 06:44:41;;;;;;;1.65;1.65;;;;;;;28.23;50.69;96986.56;5021815;28;20133;-61
2023/08/18 06:47:07;;;;;;;1.90;1.90;;;;;;;28.62;49.96;96968.16;5027542;28;20072;-62
2023/08/18 06:49:34;;;;;;;2.10;2.10;;;;;;;28.82;49.33;96986.13;5026596;28;20538;-61
2023/08/18 06:52:01;;;;;;;1.60;1.60;;;;;;;29.10;48.00;97046.56;5039293;28;20045;-67
2023/08/18 06:54:28;;;;;;;1.88;1.88;;;;;;;28.76;48.91;96970.19;5022762;28;20711;-61
2023/08/18 06:56:55;;;;;;;1.52;1.52;;;;;;;29.07;47.94;96984.78;5031807;28;20049;-62
2023/08/18 06:59:22;;;;;;;1.80;1.80;;;;;;;28.96;46.59;96950.34;5028950;28;20053;-60
2023/08/18 07:01:48;;;;;;;1.70;1.70;;;;;;;28.35;47.82;96997.69;5028770;28;20057;-60
2023/08/18 07:04:18;;;;;;;1.80;1.80;;;;;;;28.88;46.95;96984.16;5024523;28;20548;-69
2023/08/18 07:06:45;;;;;;;1.70;1.70;;;;;;;29.47;45.91;97013.41;5022445;28;20057;-71
2023/08/18 07:09:12;;;;;;;1.80;1.80;;;;;;;29.75;46.73;97016.69;5031620;28;20056;-61
2023/08/18 07:11:39;;;;;;;1.88;1.88;;;;;;;29.57;45.98;97006.28;5019429;28;20524;-61
2023/08/18 07:14:06;;;;;;;1.73;1.73;;;;;;;29.39;45.24;96980.84;5030020;28;20080;-66
2023/08/18 07:16:32;;;;;;;1.85;1.85;;;;;;;29.93;45.10;97014.34;5036249;28;20462;-66
2023/08/18 07:18:59;;;;;;;1.77;1.77;;;;;;;29.74;43.27;96961.63;5021462;28;20392;-71
2023/08/18 07:21:26;;;;;;;1.67;1.67;;;;;;;30.36;42.65;97001.91;5025270;28;20048;-67
2023/08/18 07:23:52;;;;;;;1.95;1.95;;;;;;;29.18;41.64;96790.91;5028283;28;20049;-70
2023/08/18 07:26:19;;;;;;;1.75;1.75;;;;;;;30.72;41.85;96992.66;5032903;28;20045;-61
2023/08/18 07:28:46;;;;;;;1.60;1.60;;;;;;;30.71;41.84;96999.66;5027979;28;20057;-67
2023/08/18 07:31:12;;;;;;;2.00;2.00;;;;;;;28.95;42.54;96737.66;5036205;28;20041;-70
2023/08/18 07:33:39;;;;;;;1.73;1.73;;;;;;;30.85;42.14;97001.66;5035706;28;20128;-57
2023/08/18 07:36:07;;;;;;;1.80;1.80;;;;;;;30.90;41.99;96991.56;5044188;28;20065;-65
2023/08/18 07:38:34;;;;;;;2.05;2.05;;;;;;;30.60;41.93;96950.16;5033727;28;20069;-67
2023/08/18 07:41:02;;;;;;;1.73;1.73;;;;;;;30.89;42.81;96990.75;5034533;28;20547;-74
2023/08/18 07:43:28;;;;;;;2.00;2.00;;;;;;;30.62;42.44;96994.13;5031282;28;20057;-62
2023/08/18 07:45:56;;;;;;;1.85;1.85;;;;;;;30.50;43.02;96929.53;5037798;28;20044;-61
2023/08/18 07:48:23;;;;;;;1.65;1.65;;;;;;;30.64;43.05;96960.09;5033648;28;20065;-64
2023/08/18 07:50:50;;;;;;;2.03;2.03;;;;;;;30.50;42.53;96969.56;5024097;28;20536;-61
2023/08/18 07:53:16;;;;;;;1.70;1.70;;;;;;;30.11;42.13;96874.03;5023612;28;20045;-69
2023/08/18 07:55:46;;;;;;;1.85;1.85;;;;;;;30.28;42.25;96889.28;5022872;28;20053;-67
2023/08/18 07:58:13;;;;;;;1.58;1.58;;;;;;;29.14;41.82;96701.88;5027997;28;20788;-63
2023/08/18 08:00:42;;;;;;;2.10;2.10;;;;;;;30.78;42.74;96970.63;5049463;28;20048;-59
2023/08/18 08:03:09;;;;;;;2.10;2.10;;;;;;;31.06;41.22;96965.16;5058904;28;20040;-59
2023/08/18 08:05:36;;;;;;;1.67;1.67;;;;;;;31.41;41.94;96996.41;5047628;28;20052;-59
2023/08/18 08:08:03;;;;;;;1.73;1.73;;;;;;;30.29;42.17;96910.88;5058693;28;20053;-69
2023/08/18 08:10:30;;;;;;;1.60;1.60;;;;;;;31.01;41.96;96997.38;5063707;28;20108;-61
2023/08/18 08:12:57;;;;;;;1.63;1.63;;;;;;;30.55;41.47;96931.66;5054463;28;20045;-61
2023/08/18 08:15:24;;;;;;;1.83;1.83;;;;;;;30.97;42.19;96996.81;5054430;28;20052;-62
2023/08/18 08:17:51;;;;;;;1.70;1.70;;;;;;;30.42;42.72;96888.38;5048746;28;20099;-60
2023/08/18 08:20:18;;;;;;;1.70;1.70;;;;;;;30.03;41.47;96792.91;5056757;28;20044;-72
2023/08/18 08:22:47;;;;;;;1.70;1.70;;;;;;;30.83;41.22;96912.69;5052760;28;20628;-67
2023/08/18 08:25:14;;;;;;;1.75;1.75;;;;;;;31.55;40.92;97007.69;5047840;28;20090;-65
2023/08/18 08:27:42;;;;;;;1.60;1.60;;;;;;;31.62;40.80;97000.69;5046541;28;20076;-60
2023/08/18 08:30:11;;;;;;;1.80;1.80;;;;;;;31.57;40.49;97002.25;5050879;28;20081;-56
2023/08/18 08:32:47;;;;;;;1.88;1.88;;;;;;;31.59;40.75;97007.44;5050719;28;20730;-61
2023/08/18 08:35:14;;;;;;;1.70;1.70;;;;;;;31.55;40.30;97012.66;5051344;28;20044;-64
2023/08/18 08:37:41;;;;;;;2.08;2.08;;;;;;;31.74;40.66;97013.81;5056455;28;20495;-61
2023/08/18 08:40:18;;;;;;;1.98;1.98;;;;;;;31.09;39.58;96888.94;5053021;28;20051;-68
2023/08/18 08:42:46;;;;;;;2.13;2.13;;;;;;;31.68;39.57;97002.31;5059424;28;20049;-62
2023/08/18 08:45:13;;;;;;;1.60;1.60;;;;;;;31.65;39.43;97005.41;5049581;28;20049;-60
2023/08/18 08:47:40;;;;;;;1.75;1.75;;;;;;;31.47;38.97;96977.19;5049337;28;20710;-62
2023/08/18 08:50:08;;;;;;;1.80;1.80;;;;;;;31.64;38.91;96986.66;5053045;28;20619;-60
2023/08/18 08:52:38;;;;;;;1.50;1.50;;;;;;;31.37;39.52;96921.41;5050415;28;20049;-61
2023/08/18 08:55:13;;;;;;;1.70;1.70;;;;;;;31.65;38.86;96973.88;5055377;28;20050;-68
2023/08/18 08:57:40;;;;;;;1.60;1.60;;;;;;;31.17;39.19;96941.56;5058949;28;20051;-62
2023/08/18 09:00:09;;;;;;;1.95;1.95;;;;;;;31.68;38.92;96970.03;5062282;28;20566;-70
2023/08/18 09:02:38;;;;;;;1.95;1.95;;;;;;;31.57;38.99;96947.81;5053600;28;20491;-60
2023/08/18 09:05:04;;;;;;;1.95;1.95;;;;;;;31.64;39.54;96986.66;5057906;28;20041;-63
2023/08/18 09:07:31;;;;;;;1.95;1.95;;;;;;;31.99;38.97;96978.53;5043438;28;20610;-64
2023/08/18 09:09:58;;;;;;;1.83;1.83;;;;;;;31.87;38.92;96956.84;5047308;28;20044;-61
2023/08/18 09:12:29;;;;;;;2.05;2.05;;;;;;;32.53;38.25;96982.91;5054535;28;20670;-72
2023/08/18 09:15:00;;;;;;;1.70;1.70;;;;;;;33.05;38.24;96966.03;5041891;28;20068;-69
2023/08/18 09:17:27;;;;;;;1.80;1.80;;;;;;;33.19;37.31;96983.00;5040948;28;20516;-61
2023/08/18 09:19:58;;;;;;;2.05;2.05;;;;;;;33.23;36.60;96977.75;5045062;28;20547;-61
2023/08/18 09:22:25;;;;;;;1.92;1.92;;;;;;;32.89;36.99;96918.81;5046653;28;20420;-64
2023/08/18 09:24:52;;;;;;;1.90;1.90;;;;;;;33.11;36.79;96953.25;5045930;28;20059;-63
2023/08/18 09:27:20;;;;;;;2.00;2.00;;;;;;;33.13;37.07;96916.19;5059733;28;20418;-71
2023/08/18 09:29:47;;;;;;;1.90;1.90;;;;;;;33.91;36.86;96967.75;5059773;28;20049;-67
2023/08/18 09:32:14;;;;;;;1.88;1.88;;;;;;;34.15;36.18;96970.78;5057736;28;20110;-73
2023/08/18 09:34:44;;;;;;;1.80;1.80;;;;;;;34.34;35.78;96954.47;5059879;28;20044;-68
2023/08/18 09:37:11;;;;;;;2.13;2.13;;;;;;;34.24;35.50;96938.84;5046381;28;20051;-64
2023/08/18 09:39:38;;;;;;;1.88;1.88;;;;;;;34.31;35.73;96933.31;5055638;28;20055;-63
2023/08/18 09:42:06;;;;;;;2.03;2.03;;;;;;;33.99;35.24;96836.50;5053259;28;20136;-65
2023/08/18 09:44:33;;;;;;;1.95;1.95;;;;;;;34.39;34.86;96922.84;5046300;28;20057;-71
2023/08/18 09:47:04;;;;;;;2.10;2.10;;;;;;;34.86;35.46;96955.19;5052638;28;20452;-64
2023/08/18 09:49:34;;;;;;;2.25;2.25;;;;;;;34.62;35.05;96929.22;5046274;28;20056;-68
2023/08/18 09:52:04;;;;;;;2.40;2.38;;;;;;;33.97;36.11;96900.31;5051750;28;20052;-67
2023/08/18 09:54:45;;;;;;;1.98;1.98;;;;;;;33.43;36.63;96876.94;5049982;28;20486;-70
2023/08/18 09:57:21;;;;;;;1.83;1.83;;;;;;;33.14;37.03;96876.75;5058469;28;20156;-64
2023/08/18 09:59:55;;;;;;;2.00;2.00;;;;;;;33.03;37.57;96894.78;5051522;28;20040;-65
2023/08/18 10:02:26;;;;;;;1.95;1.95;;;;;;;33.03;37.52;96919.81;5057492;28;20063;-74
2023/08/18 10:04:54;;;;;;;2.10;2.10;;;;;;;33.38;37.93;96961.06;5049340;28;20671;-66
2023/08/18 10:07:21;;;;;;;1.92;1.92;;;;;;;33.69;37.77;96959.94;5040271;28;20083;-67
2023/08/18 10:09:48;;;;;;;2.08;2.08;;;;;;;33.61;37.79;96968.34;5047761;28;20094;-65
2023/08/18 10:12:15;;;;;;;2.22;2.22;;;;;;;33.32;36.34;96882.69;5040145;28;20059;-68
2023/08/18 10:14:44;;;;;;;2.30;2.30;;;;;;;34.18;36.38;96969.72;5039784;28;20056;-65
2023/08/18 10:17:12;;;;;;;2.10;2.10;;;;;;;33.64;35.57;96860.16;5045117;28;20059;-68
2023/08/18 10:19:51;;;;;;;1.88;1.88;;;;;;;34.32;35.07;96974.38;5047679;28;20080;-66
2023/08/18 10:22:19;;;;;;;2.30;2.30;;;;;;;34.00;35.40;96981.84;5039612;28;20048;-67
2023/08/18 10:24:48;;;;;;;2.33;2.33;;;;;;;33.96;35.13;96915.19;5056258;28;20522;-63
2023/08/18 10:27:26;;;;;;;2.08;2.08;;;;;;;34.14;34.68;96980.72;5059451;28;20112;-64
2023/08/18 10:30:09;;;;;;;1.92;1.92;;;;;;;33.62;35.16;96918.16;5057724;28;20055;-62
2023/08/18 10:32:36;;;;;;;1.90;1.90;;;;;;;34.12;35.77;96951.72;5058146;28;20213;-68
2023/08/18 10:35:20;;;;;;;2.13;2.13;;;;;;;34.20;34.56;96975.72;5057988;28;20581;-60
2023/08/18 10:37:54;;;;;;;2.08;2.08;;;;;;;34.23;34.18;96969.72;5059551;28;20131;-62
2023/08/18 10:40:30;;;;;;;2.08;2.08;;;;;;;33.72;33.42;96887.81;4949396;28;20053;-63
2023/08/18 10:43:08;;;;;;;2.17;2.17;;;;;;;34.21;32.92;96962.94;5058099;28;20045;-60
2023/08/18 10:45:36;;;;;;;1.88;1.88;;;;;;;34.10;33.96;96965.84;5059611;28;20052;-65
2023/08/18 10:48:04;;;;;;;1.90;1.90;;;;;;;33.74;34.45;96968.56;5057991;28;20055;-70
2023/08/18 10:50:38;;;;;;;1.70;1.70;;;;;;;33.18;34.72;96855.06;5058981;28;20346;-69
2023/08/18 10:53:07;;;;;;;2.03;2.03;;;;;;;34.13;34.38;96944.66;5055840;28;20558;-71
2023/08/18 10:55:34;;;;;;;1.90;1.90;;;;;;;34.62;33.17;96963.78;5030499;28;20425;-70
2023/08/18 10:58:01;;;;;;;2.22;2.22;;;;;;;34.65;33.01;96954.81;5019003;28;20053;-68
2023/08/18 11:00:36;;;;;;;1.83;1.83;;;;;;;34.77;33.47;96946.91;5020814;28;20159;-67
2023/08/18 11:03:03;;;;;;;2.03;2.03;;;;;;;35.08;32.58;96950.09;5020724;28;20049;-66
2023/08/18 11:05:33;;;;;;;1.77;1.77;;;;;;;35.14;32.57;96945.03;5019996;28;20050;-67
2023/08/18 11:08:01;;;;;;;1.83;1.83;;;;;;;35.24;31.58;96945.47;5020649;28;20068;-67
2023/08/18 11:10:29;;;;;;;2.20;2.20;;;;;;;35.28;31.24;96950.97;5020441;28;20056;-66
2023/08/18 11:12:58;;;;;;;1.98;1.98;;;;;;;35.23;31.77;96948.91;5020407;28;20267;-66
2023/08/18 11:15:25;;;;;;;2.03;2.03;;;;;;;34.23;32.19;96943.03;5018391;28;20155;-66
2023/08/18 11:17:52;;;;;;;2.10;2.10;;;;;;;32.83;33.05;96882.75;5020388;28;20056;-66
2023/08/18 11:20:19;;;;;;;2.05;2.05;;;;;;;33.67;33.59;96959.72;5027093;28;20483;-67
2023/08/18 11:22:50;;;;;;;1.92;1.92;;;;;;;33.56;33.58;96954.75;5040104;28;20481;-66
2023/08/18 11:25:17;;;;;;;2.08;2.08;;;;;;;33.66;33.70;96941.69;5037771;28;20393;-65
2023/08/18 11:27:45;;;;;;;2.25;2.25;;;;;;;33.77;33.24;96957.34;5039869;28;20052;-68
2023/08/18 11:30:13;;;;;;;2.22;2.22;;;;;;;33.83;34.07;96960.97;5038552;28;20056;-66
2023/08/18 11:32:41;;;;;;;1.92;1.92;;;;;;;34.06;33.35;96907.81;5040005;28;20053;-66
2023/08/18 11:35:12;;;;;;;2.10;2.10;;;;;;;34.63;33.18;96953.81;5040219;28;20053;-66
2023/08/18 11:37:43;;;;;;;1.85;1.85;;;;;;;33.98;33.78;96955.69;5039988;28;20052;-66